Echo, Minnesota
Current Conditions -  °F | °C
As of 3:52 AM on Saturday 29 Nov 2014 (Local Time) from KGDB Reporting Station
Clear Clear  
Wind Chill:   Ceiling: Unl
Heat Index: 18°   Visibility: 7mi
Dew Point: 17°   Wind: 9mph
Humidity: 93%   Direction: 110°ESE
Pressure: 29.5"   Gusts: NA
Location:  44.62°N, 95.42°W
Report Text: KGDB 290952Z AUTO 11008KT 7SM CLR M08/M08 A2950 RMK AO2 T10761085
Loading
Personal Weather Stations






























Interactive Weather Map New forecast layout! Learn more

10-Day Weather Forecast

Advertisements
Track Severe Weather on mobile